Airfield :
LOGIN :

Register | Disclaimer

   EN    FR    IT 

 










Legend :    VFR   Marginal VFR   IFR   Intensive IFR   Very Intensive IFR
Visi :
Ceiling :
>= 8 km
>= 3000ft
5 to 8 km
1000 to 3000 ft
1500m to 5 km
500 to 1000 ft
800 to 1500m
200 to 500 ft
< 800m
< 200 ft
Symbols :   Thunderstorms  Fog  Heavy snow  Heavy precipitations  Wind > 20 kt
SIGMETs :     Misc.  Thunderstorms  Icing  Turbulence  Mountain Waves  Volcanic Ashes







- Airport Elevation : 1768 ft


LEHC - Huesca Pirineos

CURRENT METAR :
  • 171130Z 09008KT 050V140 CAVOK 14/M08 Q1025

EXPIRED METARs :
  • 171100Z 08007KT 030V120 CAVOK 14/M09 Q1026
  • 171030Z 07008KT 050V120 CAVOK 13/M08 Q1026
  • 171000Z 05008KT CAVOK 12/M09 Q1026
  • 170930Z 06009KT CAVOK 11/M08 Q1026
  • 170900Z 06006KT 040V100 CAVOK 10/M05 Q1026

TAF TAF LEHC
Valid from the 17 at 09:00 until the 18 at 09:00 UTC


170800Z 1709/1809 09009KT 9999 FEW030 TX17/1714Z TN01/1807Z
No reported NOTAMs for that airfield.
1 SIGMET reported for the Madrid FIR (LECM) :
 
Severe mountain waves
LECM SIGMET 4 VALID 171200/171500 LEVA
LECM MADRID FIR/UIR SEV MTW OBS AT 1157Z WI N4335 W00729 - N4220 W00652 - N4257 W00344 - N4334 W00334 - N4335 W00729 SFC/FL300 STNR NC=



MET'MAP, your aeronautical weather chart ! - Copyright ORBIFLY December 2007 - Disclaimer

ORBIFLY MET'MAP TEAM :

Programming & Development : Alexandra Zaïnal
Concept & Development : Baudouin d'Aumeries
Co-Development & Prog : Marc-Olivier Méhu
Technical & hardware support : Manuel Goepfert

Contact : metmap@orbifly.com




SOURCES & CREDITS :

   NOAA